createdAt,value
2018-04-08T00:00:22.554Z,97.30
2018-04-08T00:01:25.842Z,97.30
2018-04-08T00:02:30.615Z,97.30
2018-04-08T00:03:33.852Z,97.30
2018-04-08T00:04:37.840Z,97.30
2018-04-08T00:05:41.201Z,97.30
2018-04-08T00:06:44.405Z,97.20
2018-04-08T00:07:47.644Z,97.30
2018-04-08T00:08:50.867Z,97.30
2018-04-08T00:09:54.088Z,97.50
2018-04-08T00:10:57.296Z,98.10
2018-04-08T00:12:00.512Z,98.20
2018-04-08T00:13:05.261Z,98.20
2018-04-08T00:14:08.466Z,98.20
2018-04-08T00:15:11.680Z,98.20
2018-04-08T00:16:15.044Z,98.20
2018-04-08T00:17:18.275Z,98.10
2018-04-08T00:18:21.587Z,98.20
2018-04-08T00:19:25.578Z,98.20
2018-04-08T00:20:29.549Z,98.20
2018-04-08T00:21:32.789Z,98.20
2018-04-08T00:22:36.772Z,98.30
2018-04-08T00:23:39.996Z,98.30
2018-04-08T00:24:43.234Z,98.40
2018-04-08T00:25:47.213Z,98.40
2018-04-08T00:26:50.474Z,98.40
2018-04-08T00:27:53.699Z,98.30
2018-04-08T00:28:57.674Z,98.50
2018-04-08T00:30:01.003Z,98.50
2018-04-08T00:31:04.981Z,98.40
2018-04-08T00:32:08.964Z,98.60
2018-04-08T00:33:12.164Z,98.30
2018-04-08T00:34:16.146Z,98.40
2018-04-08T00:35:20.134Z,98.50
2018-04-08T00:36:23.340Z,98.50
2018-04-08T00:37:27.372Z,98.50
2018-04-08T00:38:30.577Z,98.40
2018-04-08T00:39:33.800Z,98.50
2018-04-08T00:40:37.040Z,98.50
2018-04-08T00:41:40.245Z,98.50
2018-04-08T00:42:43.451Z,98.50
2018-04-08T00:43:47.452Z,98.80
2018-04-08T00:44:51.526Z,98.80
2018-04-08T00:45:54.755Z,98.80
2018-04-08T00:46:59.446Z,98.80
2018-04-08T00:48:02.660Z,98.80
2018-04-08T00:49:05.901Z,98.80
2018-04-08T00:50:09.112Z,98.80
2018-04-08T00:51:13.121Z,98.90
2018-04-08T00:52:17.096Z,98.90
2018-04-08T00:53:20.336Z,98.90
2018-04-08T00:54:37.265Z,99.00
2018-04-08T00:55:40.480Z,99.00
2018-04-08T00:56:44.471Z,99.00
2018-04-08T00:57:47.752Z,99.00
2018-04-08T00:58:50.937Z,98.90
2018-04-08T00:59:54.921Z,99.10
2018-04-08T01:00:58.948Z,99.10
2018-04-08T01:02:02.951Z,98.90
2018-04-08T01:03:06.915Z,99.00
2018-04-08T01:04:10.143Z,99.00
2018-04-08T01:05:14.123Z,99.20
2018-04-08T01:06:17.344Z,99.20
2018-04-08T01:07:20.561Z,99.20
2018-04-08T01:08:23.791Z,99.20
2018-04-08T01:09:27.028Z,99.30
2018-04-08T01:10:30.236Z,99.40
2018-04-08T01:11:34.257Z,99.20
2018-04-08T01:12:38.255Z,99.30
2018-04-08T01:13:42.224Z,99.40
2018-04-08T01:14:46.962Z,99.40
2018-04-08T01:15:50.940Z,99.40
2018-04-08T01:16:54.160Z,99.30
2018-04-08T01:17:57.402Z,99.50
2018-04-08T01:19:00.603Z,99.60
2018-04-08T01:20:03.830Z,99.60
2018-04-08T01:21:07.105Z,99.60
2018-04-08T01:22:10.332Z,99.60
2018-04-08T01:23:13.562Z,99.70
2018-04-08T01:24:16.855Z,99.60
2018-04-08T01:25:20.057Z,99.60
2018-04-08T01:26:23.282Z,99.70
2018-04-08T01:27:27.284Z,99.90
2018-04-08T01:28:30.493Z,99.90
2018-04-08T01:29:33.723Z,99.90
2018-04-08T01:30:36.951Z,99.80
2018-04-08T01:31:40.172Z,99.80
2018-04-08T01:32:43.425Z,99.80
2018-04-08T01:33:46.658Z,99.80
2018-04-08T01:34:49.859Z,99.80
2018-04-08T01:35:53.839Z,99.90
2018-04-08T01:36:57.085Z,99.90
2018-04-08T01:38:00.303Z,99.90
2018-04-08T01:39:03.507Z,99.90
2018-04-08T01:40:07.563Z,99.90
2018-04-08T01:41:10.773Z,99.90
2018-04-08T01:42:14.014Z,99.90
2018-04-08T01:43:17.245Z,99.90
2018-04-08T01:44:21.232Z,99.90
2018-04-08T01:45:24.445Z,99.90
2018-04-08T01:46:27.652Z,99.90
2018-04-08T01:47:30.874Z,99.90
2018-04-08T01:48:34.105Z,99.90
2018-04-08T01:49:38.097Z,99.90
2018-04-08T01:50:42.079Z,99.90
2018-04-08T01:51:46.090Z,99.90
2018-04-08T01:52:50.099Z,99.90
2018-04-08T01:53:53.320Z,99.90
2018-04-08T01:54:56.530Z,99.90
2018-04-08T01:55:59.756Z,99.90
2018-04-08T01:57:05.007Z,99.90
2018-04-08T01:58:08.428Z,99.90
2018-04-08T01:59:11.644Z,99.90
2018-04-08T02:00:15.680Z,99.90
2018-04-08T02:01:19.718Z,99.90
2018-04-08T02:02:23.231Z,99.90
2018-04-08T02:03:26.430Z,99.90
2018-04-08T02:04:29.644Z,99.90
2018-04-08T02:05:32.889Z,99.90
2018-04-08T02:06:36.088Z,99.90
2018-04-08T02:07:39.348Z,99.90
2018-04-08T02:08:43.334Z,99.90
2018-04-08T02:09:46.547Z,99.90
2018-04-08T02:10:49.765Z,99.90
2018-04-08T02:11:52.976Z,99.90
2018-04-08T02:12:56.202Z,99.90
2018-04-08T02:13:59.417Z,99.90
2018-04-08T02:15:02.715Z,99.90
2018-04-08T02:16:05.904Z,99.90
2018-04-08T02:17:09.211Z,99.90
2018-04-08T02:18:13.192Z,99.90
2018-04-08T02:19:16.467Z,99.90
2018-04-08T02:20:19.650Z,99.90
2018-04-08T02:21:22.879Z,99.90
2018-04-08T02:22:26.884Z,99.90
2018-04-08T02:23:30.090Z,99.90
2018-04-08T02:24:33.300Z,99.90
2018-04-08T02:25:36.527Z,99.90
2018-04-08T02:26:39.838Z,99.90
2018-04-08T02:27:43.042Z,99.90
2018-04-08T02:28:46.283Z,99.90
2018-04-08T02:29:49.497Z,99.90
2018-04-08T02:30:52.770Z,99.90
2018-04-08T02:31:55.985Z,99.90
2018-04-08T02:32:59.199Z,99.90
2018-04-08T02:34:03.195Z,99.90
2018-04-08T02:35:07.206Z,99.90
2018-04-08T02:36:11.176Z,99.90
2018-04-08T02:37:14.400Z,99.90
2018-04-08T02:38:17.612Z,99.90
2018-04-08T02:39:20.839Z,99.90
2018-04-08T02:40:24.824Z,99.90
2018-04-08T02:41:28.048Z,99.90
2018-04-08T02:42:31.279Z,99.90
2018-04-08T02:43:34.486Z,99.90
2018-04-08T02:44:38.479Z,99.90
2018-04-08T02:45:41.690Z,99.90
2018-04-08T02:46:44.916Z,99.90
2018-04-08T02:47:48.153Z,99.90
2018-04-08T02:48:51.384Z,99.90
2018-04-08T02:49:54.601Z,99.90
2018-04-08T02:50:58.581Z,99.90
2018-04-08T02:52:01.811Z,99.90
2018-04-08T02:53:05.033Z,99.90
2018-04-08T02:54:08.269Z,99.90
2018-04-08T02:55:11.486Z,99.90
2018-04-08T02:56:14.707Z,99.90
2018-04-08T02:57:18.694Z,99.90
2018-04-08T02:58:22.013Z,99.90
2018-04-08T02:59:25.281Z,99.90
2018-04-08T03:00:29.279Z,99.90
2018-04-08T03:01:33.280Z,99.90
2018-04-08T03:02:37.321Z,99.90
2018-04-08T03:03:40.528Z,99.90
2018-04-08T03:04:43.765Z,99.90
2018-04-08T03:05:47.781Z,99.90
2018-04-08T03:06:50.991Z,99.90
2018-04-08T03:07:54.228Z,99.90
2018-04-08T03:08:57.467Z,99.90
2018-04-08T03:10:00.684Z,99.90
2018-04-08T03:11:04.690Z,99.90
2018-04-08T03:12:08.677Z,99.90
2018-04-08T03:13:12.668Z,99.90
2018-04-08T03:14:15.908Z,99.90
2018-04-08T03:15:19.120Z,99.90
2018-04-08T03:16:22.381Z,99.90
2018-04-08T03:17:26.473Z,99.90
2018-04-08T03:18:30.607Z,99.90
2018-04-08T03:19:33.826Z,99.90
2018-04-08T03:20:37.816Z,99.90
2018-04-08T03:21:41.818Z,99.90
2018-04-08T03:22:45.035Z,99.90
2018-04-08T03:23:48.314Z,99.90
2018-04-08T03:24:51.557Z,99.90
2018-04-08T03:25:54.747Z,99.90
2018-04-08T03:26:58.729Z,99.90
2018-04-08T03:28:01.972Z,99.90
2018-04-08T03:29:05.235Z,99.90
2018-04-08T03:30:09.227Z,99.90
2018-04-08T03:31:13.230Z,99.90
2018-04-08T03:32:17.198Z,99.90
2018-04-08T03:33:20.423Z,99.90
2018-04-08T03:34:23.651Z,99.90
2018-04-08T03:35:26.867Z,99.90
2018-04-08T03:36:30.855Z,99.90
2018-04-08T03:37:34.074Z,99.90
2018-04-08T03:38:37.335Z,99.90
2018-04-08T03:39:40.540Z,99.90
2018-04-08T03:40:43.802Z,99.90
2018-04-08T03:41:47.787Z,99.90
2018-04-08T03:42:51.794Z,99.90
2018-04-08T03:43:54.995Z,99.90
2018-04-08T03:44:58.964Z,99.90
2018-04-08T03:46:02.286Z,99.90
2018-04-08T03:47:05.629Z,99.90
2018-04-08T03:48:08.869Z,99.90
2018-04-08T03:49:12.089Z,99.90
2018-04-08T03:50:15.298Z,99.90
2018-04-08T03:51:19.287Z,99.90
2018-04-08T03:52:22.557Z,99.90
2018-04-08T03:53:25.794Z,99.90
2018-04-08T03:54:29.026Z,99.90
2018-04-08T03:55:32.261Z,99.90
2018-04-08T03:56:35.488Z,99.90
2018-04-08T03:57:39.518Z,99.90
2018-04-08T03:58:43.535Z,99.90
2018-04-08T03:59:47.521Z,99.90
2018-04-08T04:00:51.504Z,99.90
2018-04-08T04:01:54.742Z,99.90
2018-04-08T04:02:58.031Z,99.90
2018-04-08T04:04:01.249Z,99.90
2018-04-08T04:05:04.463Z,99.90
2018-04-08T04:06:08.442Z,99.90
2018-04-08T04:07:11.665Z,99.90
2018-04-08T04:08:14.880Z,99.90
2018-04-08T04:09:18.103Z,99.90
2018-04-08T04:10:22.172Z,99.90
2018-04-08T04:11:25.378Z,99.90
2018-04-08T04:12:28.589Z,99.90
2018-04-08T04:13:31.824Z,99.90
2018-04-08T04:14:36.576Z,99.90
2018-04-08T04:15:39.775Z,99.90
2018-04-08T04:16:42.992Z,99.90
2018-04-08T04:17:46.204Z,99.90
2018-04-08T04:19:01.418Z,99.90
2018-04-08T04:20:16.492Z,99.90
2018-04-08T04:21:31.564Z,99.90
2018-04-08T04:22:46.602Z,99.90
2018-04-08T04:24:01.591Z,99.90
2018-04-08T04:25:19.561Z,99.90
2018-04-08T04:26:31.350Z,99.90
2018-04-08T04:27:34.574Z,99.90
2018-04-08T04:28:37.807Z,99.90
2018-04-08T04:29:41.799Z,99.90
2018-04-08T04:30:45.806Z,99.90
2018-04-08T04:31:49.006Z,99.90
2018-04-08T04:32:52.226Z,99.90
2018-04-08T04:33:55.447Z,99.90
2018-04-08T04:34:59.431Z,99.90
2018-04-08T04:36:02.681Z,99.90
2018-04-08T04:37:05.917Z,99.90
2018-04-08T04:38:09.908Z,99.90
2018-04-08T04:39:13.877Z,99.90
2018-04-08T04:40:17.101Z,99.90
2018-04-08T04:41:21.096Z,99.90
2018-04-08T04:42:25.113Z,99.90
2018-04-08T04:43:28.333Z,99.90
2018-04-08T04:44:31.563Z,99.90
2018-04-08T04:45:34.824Z,99.90
2018-04-08T04:46:37.969Z,99.90
2018-04-08T04:47:41.195Z,99.90
2018-04-08T04:48:44.404Z,99.90
2018-04-08T04:49:47.625Z,99.90
2018-04-08T04:50:50.844Z,99.90
2018-04-08T04:51:54.055Z,99.90
2018-04-08T04:52:57.283Z,99.90
2018-04-08T04:54:00.503Z,99.90
2018-04-08T04:55:04.531Z,99.90
2018-04-08T04:56:07.735Z,99.90
2018-04-08T04:57:10.965Z,99.90
2018-04-08T04:58:14.942Z,99.90
2018-04-08T04:59:18.153Z,99.90
2018-04-08T05:00:22.127Z,99.90
2018-04-08T05:01:25.367Z,99.90
2018-04-08T05:02:28.564Z,99.90
2018-04-08T05:03:31.787Z,99.90
2018-04-08T05:04:35.107Z,99.90
2018-04-08T05:05:39.082Z,99.90
2018-04-08T05:06:43.094Z,99.90
2018-04-08T05:07:47.076Z,99.90
2018-04-08T05:08:51.075Z,99.90
2018-04-08T05:09:55.085Z,99.90
2018-04-08T05:10:59.089Z,99.90
2018-04-08T05:12:02.456Z,99.90
2018-04-08T05:13:05.662Z,99.90
2018-04-08T05:14:09.745Z,99.90
2018-04-08T05:15:12.935Z,99.90
2018-04-08T05:16:16.962Z,99.90
2018-04-08T05:17:20.234Z,99.90
2018-04-08T05:18:24.255Z,99.90
2018-04-08T05:19:27.485Z,99.90
2018-04-08T05:20:30.767Z,99.90
2018-04-08T05:21:33.948Z,99.90
2018-04-08T05:22:37.175Z,99.90
2018-04-08T05:23:41.148Z,99.90
2018-04-08T05:24:45.129Z,99.90
2018-04-08T05:25:48.364Z,99.90
2018-04-08T05:26:51.635Z,99.90
2018-04-08T05:27:54.959Z,99.90
2018-04-08T05:28:58.160Z,99.90
2018-04-08T05:30:01.372Z,99.90
2018-04-08T05:31:05.360Z,99.90
2018-04-08T05:32:08.585Z,99.90
2018-04-08T05:33:11.800Z,99.90
2018-04-08T05:34:15.032Z,99.90
2018-04-08T05:35:19.038Z,99.90
2018-04-08T05:36:23.011Z,99.90
2018-04-08T05:37:26.235Z,99.90
2018-04-08T05:38:29.455Z,99.90
2018-04-08T05:39:32.674Z,99.90
2018-04-08T05:40:35.890Z,99.90
2018-04-08T05:41:39.141Z,99.90
2018-04-08T05:42:43.149Z,99.90
2018-04-08T05:43:47.124Z,99.90
2018-04-08T05:44:50.338Z,99.90
2018-04-08T05:45:53.549Z,99.90
2018-04-08T05:46:56.775Z,99.90
2018-04-08T05:47:59.992Z,99.90
2018-04-08T05:49:03.208Z,99.90
2018-04-08T05:50:06.445Z,99.90
2018-04-08T05:51:09.709Z,99.90
2018-04-08T05:52:13.733Z,99.90
2018-04-08T05:53:16.952Z,99.90
2018-04-08T05:54:20.225Z,99.90
2018-04-08T05:55:23.457Z,99.90
2018-04-08T05:56:27.470Z,99.90
2018-04-08T05:57:31.427Z,99.90
2018-04-08T05:58:34.647Z,99.90
2018-04-08T05:59:38.758Z,99.90
2018-04-08T06:00:41.976Z,99.90
2018-04-08T06:01:45.195Z,99.90
2018-04-08T06:02:48.419Z,99.90
2018-04-08T06:03:51.661Z,99.90
2018-04-08T06:04:54.877Z,99.90
2018-04-08T06:05:58.846Z,99.90
2018-04-08T06:07:02.071Z,99.90
2018-04-08T06:08:05.399Z,99.90
2018-04-08T06:09:08.604Z,99.90
2018-04-08T06:10:11.863Z,99.90
2018-04-08T06:11:15.093Z,99.90
2018-04-08T06:12:18.326Z,99.90
2018-04-08T06:13:21.547Z,99.90
2018-04-08T06:14:24.779Z,99.90
2018-04-08T06:15:27.985Z,99.90
2018-04-08T06:16:31.970Z,99.90
2018-04-08T06:17:35.263Z,99.90
2018-04-08T06:18:38.430Z,99.90
2018-04-08T06:19:41.660Z,99.90
2018-04-08T06:20:44.880Z,99.90
2018-04-08T06:21:48.105Z,99.90
2018-04-08T06:22:51.326Z,99.90
2018-04-08T06:23:54.544Z,99.90
2018-04-08T06:24:57.762Z,99.90
2018-04-08T06:26:01.755Z,99.90
2018-04-08T06:27:04.974Z,99.90
2018-04-08T06:28:08.216Z,99.90
2018-04-08T06:29:12.200Z,99.40
2018-04-08T06:30:15.447Z,99.40
2018-04-08T06:31:18.640Z,99.10
2018-04-08T06:32:21.846Z,99.40
2018-04-08T06:33:25.083Z,99.70
2018-04-08T06:34:28.301Z,99.80
2018-04-08T06:35:31.508Z,99.60
2018-04-08T06:36:34.736Z,99.40
2018-04-08T06:37:37.970Z,99.00
2018-04-08T06:38:41.202Z,98.80
2018-04-08T06:39:44.432Z,98.90
2018-04-08T06:40:47.653Z,99.00
2018-04-08T06:41:50.873Z,99.20
2018-04-08T06:42:54.084Z,99.40
2018-04-08T06:43:57.314Z,99.50
2018-04-08T06:45:00.585Z,99.60
2018-04-08T06:46:04.638Z,99.80
2018-04-08T06:47:07.845Z,99.80
2018-04-08T06:48:11.082Z,99.80
2018-04-08T06:49:14.298Z,99.90
2018-04-08T06:50:17.506Z,99.90
2018-04-08T06:51:21.488Z,99.90
2018-04-08T06:52:24.707Z,99.90
2018-04-08T06:53:27.943Z,99.90
2018-04-08T06:54:31.196Z,99.80
2018-04-08T06:55:34.407Z,99.90
2018-04-08T06:56:37.639Z,99.80
2018-04-08T06:57:40.910Z,99.70
2018-04-08T06:58:44.914Z,99.70
2018-04-08T06:59:48.143Z,99.70
2018-04-08T07:00:51.390Z,99.70
2018-04-08T07:01:54.622Z,99.80
2018-04-08T07:02:57.873Z,99.70
2018-04-08T07:04:01.098Z,99.70
2018-04-08T07:05:04.316Z,99.60
2018-04-08T07:06:07.524Z,99.60
2018-04-08T07:07:10.782Z,99.80
2018-04-08T07:08:14.761Z,99.50
2018-04-08T07:09:18.837Z,99.50
2018-04-08T07:10:22.044Z,99.50
2018-04-08T07:11:25.267Z,99.60
2018-04-08T07:12:28.486Z,99.30
2018-04-08T07:13:31.728Z,99.30
2018-04-08T07:14:34.928Z,99.30
2018-04-08T07:15:38.144Z,99.20
2018-04-08T07:16:41.388Z,99.10
2018-04-08T07:17:44.598Z,99.10
2018-04-08T07:18:47.833Z,99.00
2018-04-08T07:19:51.075Z,98.30
2018-04-08T07:20:54.299Z,98.10
2018-04-08T07:21:57.538Z,97.90
2018-04-08T07:23:00.752Z,97.70
2018-04-08T07:24:04.002Z,97.60
2018-04-08T07:25:07.248Z,97.50
2018-04-08T07:26:10.480Z,97.40
2018-04-08T07:27:14.510Z,97.30
2018-04-08T07:28:17.741Z,97.00
2018-04-08T07:29:21.040Z,97.00
2018-04-08T07:30:24.268Z,97.10
2018-04-08T07:31:27.500Z,97.20
2018-04-08T07:32:30.770Z,97.10
2018-04-08T07:33:34.006Z,97.10
2018-04-08T07:34:37.240Z,97.20
2018-04-08T07:35:40.515Z,97.20
2018-04-08T07:36:43.757Z,97.10
2018-04-08T07:37:46.980Z,96.90
2018-04-08T07:38:50.228Z,96.90
2018-04-08T07:39:53.442Z,96.80
2018-04-08T07:40:56.672Z,96.60
2018-04-08T07:42:00.663Z,96.70
2018-04-08T07:43:04.677Z,96.90
2018-04-08T07:44:08.741Z,96.70
2018-04-08T07:45:12.719Z,96.80
2018-04-08T07:46:15.952Z,96.80
2018-04-08T07:47:19.930Z,97.00
2018-04-08T07:48:23.170Z,96.90
2018-04-08T07:49:26.391Z,97.00
2018-04-08T07:50:29.623Z,96.90
2018-04-08T07:51:32.856Z,96.80
2018-04-08T07:52:36.071Z,96.60
2018-04-08T07:53:40.069Z,96.70
2018-04-08T07:54:44.060Z,96.50
2018-04-08T07:55:48.149Z,96.40
2018-04-08T07:56:51.403Z,96.40
2018-04-08T07:57:54.632Z,96.30
2018-04-08T07:58:58.634Z,96.10
2018-04-08T08:00:02.627Z,96.30
2018-04-08T08:01:05.848Z,96.20
2018-04-08T08:02:09.120Z,96.20
2018-04-08T08:03:12.377Z,96.00
2018-04-08T08:04:15.601Z,96.10
2018-04-08T08:05:18.926Z,96.20
2018-04-08T08:06:22.116Z,96.20
2018-04-08T08:07:25.340Z,96.10
2018-04-08T08:08:28.593Z,95.90
2018-04-08T08:09:32.588Z,95.70
2018-04-08T08:10:35.800Z,95.70
2018-04-08T08:11:39.049Z,95.60
2018-04-08T08:12:43.780Z,95.10
2018-04-08T08:13:47.828Z,95.00
2018-04-08T08:14:51.060Z,95.00
2018-04-08T08:15:54.295Z,94.80
2018-04-08T08:16:57.512Z,94.70
2018-04-08T08:18:00.764Z,94.50
2018-04-08T08:19:03.977Z,94.40
2018-04-08T08:20:07.309Z,94.20
2018-04-08T08:21:11.315Z,94.10
2018-04-08T08:22:15.280Z,94.00
2018-04-08T08:23:19.309Z,93.90
2018-04-08T08:24:23.277Z,93.90
2018-04-08T08:25:27.322Z,94.20
2018-04-08T08:26:30.549Z,94.00
2018-04-08T08:27:33.886Z,94.20
2018-04-08T08:28:37.205Z,94.40
2018-04-08T08:29:40.400Z,94.40
2018-04-08T08:30:44.402Z,94.60
2018-04-08T08:31:47.658Z,94.40
2018-04-08T08:32:50.881Z,94.40
2018-04-08T08:33:54.111Z,94.30
2018-04-08T08:34:57.348Z,94.20
2018-04-08T08:36:00.592Z,94.20
2018-04-08T08:37:03.828Z,93.90
2018-04-08T08:38:07.847Z,93.50
2018-04-08T08:39:11.825Z,93.90
2018-04-08T08:40:15.834Z,93.80
2018-04-08T08:41:19.815Z,94.00
2018-04-08T08:42:23.039Z,94.00
2018-04-08T08:43:26.268Z,93.80
2018-04-08T08:44:29.605Z,93.70
2018-04-08T08:45:32.837Z,93.80
2018-04-08T08:46:36.808Z,94.00
2018-04-08T08:47:40.034Z,93.70
2018-04-08T08:48:44.037Z,93.50
2018-04-08T08:49:47.440Z,93.50
2018-04-08T08:50:51.436Z,93.60
2018-04-08T08:51:55.434Z,93.60
2018-04-08T08:52:59.602Z,93.60
2018-04-08T08:54:02.803Z,93.60
2018-04-08T08:55:06.020Z,93.60
2018-04-08T08:56:09.296Z,93.70
2018-04-08T08:57:12.489Z,93.80
2018-04-08T08:58:15.768Z,93.70
2018-04-08T08:59:19.732Z,93.70
2018-04-08T09:00:22.973Z,93.70
2018-04-08T09:01:26.195Z,93.60
2018-04-08T09:02:29.398Z,93.50
2018-04-08T09:03:33.390Z,93.30
2018-04-08T09:04:37.382Z,93.40
2018-04-08T09:05:40.725Z,93.40
2018-04-08T09:06:43.965Z,93.50
2018-04-08T09:07:47.172Z,93.40
2018-04-08T09:08:50.393Z,93.70
2018-04-08T09:09:53.622Z,93.60
2018-04-08T09:10:57.625Z,93.40
2018-04-08T09:12:01.604Z,93.30
2018-04-08T09:13:05.583Z,93.20
2018-04-08T09:14:10.336Z,93.30
2018-04-08T09:15:14.337Z,93.20
2018-04-08T09:16:18.315Z,93.40
2018-04-08T09:17:21.644Z,93.10
2018-04-08T09:18:24.885Z,93.20
2018-04-08T09:19:34.686Z,93.40
2018-04-08T09:20:37.907Z,93.50
2018-04-08T09:21:47.696Z,93.70
2018-04-08T09:22:54.909Z,93.70
2018-04-08T09:24:00.612Z,93.70
2018-04-08T09:25:05.312Z,93.70
2018-04-08T09:26:08.996Z,93.60
2018-04-08T09:27:12.228Z,93.60
2018-04-08T09:28:15.455Z,93.90
2018-04-08T09:29:19.479Z,93.70
2018-04-08T09:30:22.719Z,93.70
2018-04-08T09:31:25.938Z,93.40
2018-04-08T09:32:29.162Z,93.30
2018-04-08T09:33:32.397Z,93.20
2018-04-08T09:34:35.622Z,93.10
2018-04-08T09:35:38.840Z,93.20
2018-04-08T09:36:42.847Z,93.30
2018-04-08T09:37:46.820Z,93.40
2018-04-08T09:38:50.036Z,93.30
2018-04-08T09:39:54.052Z,93.10
2018-04-08T09:40:57.279Z,93.00
2018-04-08T09:42:00.484Z,92.90
2018-04-08T09:43:04.486Z,93.00
2018-04-08T09:44:07.717Z,93.00
2018-04-08T09:45:10.927Z,93.40
2018-04-08T09:46:14.177Z,93.10
2018-04-08T09:47:17.404Z,93.00
2018-04-08T09:48:20.628Z,92.90
2018-04-08T09:49:23.857Z,92.80
2018-04-08T09:50:27.082Z,92.60
2018-04-08T09:51:31.066Z,92.30
2018-04-08T09:52:34.359Z,92.30
2018-04-08T09:53:38.360Z,92.30
2018-04-08T09:54:42.346Z,92.10
2018-04-08T09:55:45.580Z,92.10
2018-04-08T09:56:48.800Z,91.80
2018-04-08T09:57:57.813Z,91.70
2018-04-08T09:59:01.045Z,91.60
2018-04-08T10:00:04.252Z,91.50
2018-04-08T10:01:26.280Z,91.50
2018-04-08T10:02:33.182Z,91.40
2018-04-08T10:03:46.093Z,91.10
2018-04-08T10:04:49.411Z,91.00
2018-04-08T10:05:52.646Z,91.10
2018-04-08T10:06:55.860Z,91.00
2018-04-08T10:07:59.860Z,91.10
2018-04-08T10:09:03.846Z,91.00
2018-04-08T10:10:07.089Z,91.00
2018-04-08T10:11:10.303Z,91.10
2018-04-08T10:12:13.544Z,90.60
2018-04-08T10:13:16.813Z,90.40
2018-04-08T10:14:20.067Z,90.30
2018-04-08T10:15:23.386Z,90.30
2018-04-08T10:16:26.620Z,90.10
2018-04-08T10:17:29.849Z,90.00
2018-04-08T10:18:33.094Z,89.90
2018-04-08T10:19:36.291Z,89.60
2018-04-08T10:20:39.550Z,89.40
2018-04-08T10:21:42.777Z,89.40
2018-04-08T10:22:46.034Z,89.50
2018-04-08T10:23:49.238Z,89.50
2018-04-08T10:24:53.253Z,89.70
2018-04-08T10:25:57.205Z,89.30
2018-04-08T10:27:00.530Z,89.30
2018-04-08T10:28:03.781Z,89.70
2018-04-08T10:29:07.043Z,89.00
2018-04-08T10:30:10.248Z,88.70
2018-04-08T10:31:13.466Z,88.60
2018-04-08T10:32:16.698Z,88.40
2018-04-08T10:33:21.428Z,88.00
2018-04-08T10:34:25.418Z,88.20
2018-04-08T10:35:28.650Z,88.10
2018-04-08T10:36:31.883Z,88.00
2018-04-08T10:37:35.098Z,87.80
2018-04-08T10:38:39.095Z,87.80
2018-04-08T10:39:43.094Z,87.60
2018-04-08T10:40:46.326Z,87.60
2018-04-08T10:41:49.559Z,86.80
2018-04-08T10:42:53.540Z,87.00
2018-04-08T10:43:56.782Z,87.00
2018-04-08T10:44:59.987Z,87.00
2018-04-08T10:46:03.239Z,86.30
2018-04-08T10:47:06.496Z,85.40
2018-04-08T10:48:09.712Z,85.20
2018-04-08T10:49:12.957Z,85.00
2018-04-08T10:50:16.930Z,84.50
2018-04-08T10:51:20.162Z,84.50
2018-04-08T10:52:23.394Z,84.10
2018-04-08T10:53:26.611Z,83.70
2018-04-08T10:54:29.921Z,82.80
2018-04-08T10:55:33.194Z,82.60
2018-04-08T10:56:36.811Z,82.40
2018-04-08T10:57:40.051Z,82.40
2018-04-08T10:58:44.022Z,83.20
2018-04-08T10:59:47.377Z,82.90
2018-04-08T11:00:50.650Z,82.60
2018-04-08T11:01:53.877Z,82.40
2018-04-08T11:02:57.137Z,82.40
2018-04-08T11:04:00.500Z,82.60
2018-04-08T11:05:03.713Z,83.00
2018-04-08T11:06:06.962Z,82.80
2018-04-08T11:07:10.193Z,81.80
2018-04-08T11:08:15.356Z,80.70
2018-04-08T11:09:21.892Z,81.30
2018-04-08T11:10:25.153Z,81.70
2018-04-08T11:11:28.438Z,82.20
2018-04-08T11:12:31.628Z,82.50
2018-04-08T11:13:34.865Z,81.90
2018-04-08T11:14:38.101Z,81.20
2018-04-08T11:15:41.323Z,80.90
2018-04-08T11:16:44.554Z,80.30
2018-04-08T11:17:47.844Z,79.70
2018-04-08T11:18:51.069Z,79.60
2018-04-08T11:19:54.290Z,79.40
2018-04-08T11:20:57.517Z,78.30
2018-04-08T11:22:01.517Z,77.30
2018-04-08T11:23:05.512Z,77.80
2018-04-08T11:24:09.553Z,78.10
2018-04-08T11:25:12.793Z,78.00
2018-04-08T11:26:16.771Z,76.80
2018-04-08T11:27:19.999Z,76.10
2018-04-08T11:28:23.218Z,76.50
2018-04-08T11:29:26.455Z,76.60
2018-04-08T11:30:30.429Z,77.20
2018-04-08T11:31:33.707Z,77.20
2018-04-08T11:32:37.448Z,77.20
2018-04-08T11:33:40.670Z,77.50
2018-04-08T11:34:43.902Z,75.80
2018-04-08T11:35:47.150Z,73.90
2018-04-08T11:36:50.372Z,75.00
2018-04-08T11:37:53.609Z,75.60
2018-04-08T11:38:56.808Z,73.70
2018-04-08T11:40:00.035Z,72.30
2018-04-08T11:41:03.255Z,72.20
2018-04-08T11:42:06.484Z,72.30
2018-04-08T11:43:09.729Z,74.20
2018-04-08T11:44:12.958Z,75.30
2018-04-08T11:45:16.189Z,73.70
2018-04-08T11:46:19.427Z,73.80
2018-04-08T11:47:22.640Z,73.50
2018-04-08T11:48:25.866Z,72.90
2018-04-08T11:49:29.867Z,73.70
2018-04-08T11:50:33.877Z,72.80
2018-04-08T11:51:37.852Z,70.80
2018-04-08T11:52:41.080Z,70.80
2018-04-08T11:53:44.353Z,70.00
2018-04-08T11:54:47.587Z,69.30
2018-04-08T11:55:50.868Z,68.40
2018-04-08T11:56:54.072Z,69.10
2018-04-08T11:57:57.288Z,68.50
2018-04-08T11:59:00.518Z,65.20
2018-04-08T12:00:03.781Z,64.30
2018-04-08T12:01:07.013Z,63.50
2018-04-08T12:02:11.071Z,64.00
2018-04-08T12:03:14.298Z,63.90
2018-04-08T12:04:18.604Z,64.70
2018-04-08T12:05:22.623Z,65.80
2018-04-08T12:06:25.876Z,65.70
2018-04-08T12:07:29.093Z,65.10
2018-04-08T12:08:32.336Z,64.50
2018-04-08T12:09:35.645Z,62.60
2018-04-08T12:10:38.945Z,59.90
2018-04-08T12:11:42.138Z,59.60
2018-04-08T12:12:45.378Z,59.60
2018-04-08T12:13:48.605Z,60.10
2018-04-08T12:14:51.832Z,60.80
2018-04-08T12:15:55.840Z,59.80
2018-04-08T12:17:00.130Z,60.90
2018-04-08T12:18:03.349Z,60.70
2018-04-08T12:19:07.333Z,58.00
2018-04-08T12:20:11.360Z,57.10
2018-04-08T12:21:14.582Z,56.80
2018-04-08T12:22:17.819Z,58.70
2018-04-08T12:23:21.807Z,58.90
2018-04-08T12:24:25.811Z,58.70
2018-04-08T12:25:29.812Z,59.20
2018-04-08T12:26:37.596Z,57.30
2018-04-08T12:27:41.597Z,56.70
2018-04-08T12:28:45.601Z,56.90
2018-04-08T12:29:49.589Z,54.10
2018-04-08T12:30:52.879Z,54.10
2018-04-08T12:31:56.913Z,49.70
2018-04-08T12:33:00.144Z,49.60
2018-04-08T12:34:03.350Z,50.80
2018-04-08T12:35:07.357Z,48.90
2018-04-08T12:36:11.349Z,48.40
2018-04-08T12:37:15.336Z,47.90
2018-04-08T12:38:18.638Z,47.80
2018-04-08T12:39:21.846Z,48.10
2018-04-08T12:40:25.058Z,47.50
2018-04-08T12:41:28.287Z,46.50
2018-04-08T12:42:32.355Z,47.20
2018-04-08T12:43:35.608Z,47.10
2018-04-08T12:44:38.840Z,47.40
2018-04-08T12:45:42.065Z,47.40
2018-04-08T12:46:45.289Z,46.00
2018-04-08T12:47:48.523Z,46.30
2018-04-08T12:48:51.751Z,47.50
2018-04-08T12:49:54.986Z,47.20
2018-04-08T12:50:58.214Z,47.60
2018-04-08T12:52:01.432Z,47.00
2018-04-08T12:53:05.426Z,47.30
2018-04-08T12:54:08.666Z,46.90
2018-04-08T12:55:11.876Z,46.40
2018-04-08T12:56:15.092Z,46.20
2018-04-08T12:57:19.137Z,45.70
2018-04-08T12:58:23.076Z,45.60
2018-04-08T12:59:26.375Z,45.60
2018-04-08T13:00:30.425Z,44.90
2018-04-08T13:01:34.373Z,45.20
2018-04-08T13:02:38.394Z,45.20
2018-04-08T13:03:41.638Z,45.20
2018-04-08T13:04:44.853Z,44.60
2018-04-08T13:05:48.117Z,44.30
2018-04-08T13:06:52.098Z,44.80
2018-04-08T13:07:55.321Z,44.80
2018-04-08T13:08:58.573Z,44.30
2018-04-08T13:10:01.813Z,43.70
2018-04-08T13:11:05.064Z,43.70
2018-04-08T13:12:08.302Z,43.50
2018-04-08T13:13:12.323Z,43.30
2018-04-08T13:14:15.544Z,43.20
2018-04-08T13:15:18.782Z,43.60
2018-04-08T13:16:22.036Z,42.90
2018-04-08T13:17:25.262Z,42.30
2018-04-08T13:18:29.285Z,43.40
2018-04-08T13:19:33.265Z,43.20
2018-04-08T13:20:37.268Z,42.40
2018-04-08T13:21:40.480Z,42.40
2018-04-08T13:22:43.728Z,42.20
2018-04-08T13:23:47.714Z,42.40
2018-04-08T13:24:51.044Z,42.30
2018-04-08T13:25:55.035Z,42.30
2018-04-08T13:26:58.260Z,42.30
2018-04-08T13:28:01.480Z,41.60
2018-04-08T13:29:05.472Z,40.20
2018-04-08T13:30:08.689Z,40.20
2018-04-08T13:31:11.921Z,40.70
2018-04-08T13:32:15.142Z,41.80
2018-04-08T13:33:19.136Z,40.70
2018-04-08T13:34:23.129Z,40.30
2018-04-08T13:35:26.354Z,40.20
2018-04-08T13:36:29.585Z,40.80
2018-04-08T13:37:32.813Z,40.90
2018-04-08T13:38:36.042Z,40.40
2018-04-08T13:39:39.255Z,40.20